Time;durP1;ratioP1;P1;durP2;ratioP2;P2;SDS_P1;SDS_P2;PMS_P1;PMS_P2;Temp;Humidity;BMP_temperature;BMP_pressure;BME280_temperature;BME280_humidity;BME280_pressure;Samples;Min_cycle;Max_cycle;Signal;HPM_P1;HPM_P2
2023/06/17 00:00:22;;;;;;;15.93;8.85;;;;;;;14.30;100.00;101684.81;4970345;28;21582;-79
2023/06/17 00:03:08;;;;;;;12.05;8.50;;;;;;;14.29;100.00;101691.09;4977097;28;21676;-78
2023/06/17 00:05:53;;;;;;;12.00;8.80;;;;;;;14.28;100.00;101691.16;4977034;28;20041;-79
2023/06/17 00:08:39;;;;;;;17.85;8.88;;;;;;;14.26;100.00;101693.88;4963977;28;20113;-79
2023/06/17 00:11:28;;;;;;;13.73;9.13;;;;;;;14.24;100.00;101685.13;4960872;28;22020;-79
2023/06/17 00:14:16;;;;;;;12.65;8.68;;;;;;;14.25;100.00;101686.84;4956440;28;20069;-80
2023/06/17 00:17:02;;;;;;;12.60;9.07;;;;;;;14.20;100.00;101686.19;4976902;28;20309;-79
2023/06/17 00:19:48;;;;;;;13.77;9.32;;;;;;;14.19;100.00;101689.78;4973980;28;20140;-79
2023/06/17 00:22:35;;;;;;;12.93;9.73;;;;;;;14.18;100.00;101680.06;4971003;28;20042;-79
2023/06/17 00:25:21;;;;;;;10.82;8.63;;;;;;;14.16;100.00;101679.28;4975876;28;20505;-79
2023/06/17 00:28:07;;;;;;;11.60;8.20;;;;;;;14.15;100.00;101678.41;4986644;28;20038;-79
2023/06/17 00:30:52;;;;;;;10.25;8.20;;;;;;;14.15;100.00;101681.09;4977034;28;20093;-79
2023/06/17 00:33:38;;;;;;;11.00;8.27;;;;;;;14.14;100.00;101668.72;4976116;28;20042;-79
2023/06/17 00:36:23;;;;;;;13.38;8.82;;;;;;;14.13;100.00;101672.31;4971950;28;20648;-80
2023/06/17 00:39:09;;;;;;;15.60;8.77;;;;;;;14.11;100.00;101667.06;4988211;28;20046;-79
2023/06/17 00:41:56;;;;;;;11.65;8.27;;;;;;;14.11;100.00;101668.88;4989199;28;20173;-79
2023/06/17 00:44:42;;;;;;;16.02;8.55;;;;;;;14.10;100.00;101669.78;4967747;28;20086;-79
2023/06/17 00:47:28;;;;;;;13.70;8.73;;;;;;;14.09;100.00;101670.72;4975809;28;20046;-79
2023/06/17 00:50:14;;;;;;;11.40;8.38;;;;;;;14.07;100.00;101669.94;4970830;28;20920;-79
2023/06/17 00:53:00;;;;;;;11.10;8.38;;;;;;;14.06;100.00;101665.56;4972602;28;21027;-79
2023/06/17 00:55:46;;;;;;;11.18;8.27;;;;;;;14.05;100.00;101674.47;4974945;28;20038;-79
2023/06/17 00:58:35;;;;;;;10.70;8.02;;;;;;;14.03;100.00;101657.69;4956415;28;20089;-79
2023/06/17 01:01:21;;;;;;;14.25;8.57;;;;;;;14.02;100.00;101655.97;4920077;23;20045;-78
2023/06/17 01:04:06;;;;;;;13.85;8.20;;;;;;;14.01;100.00;101654.25;4902195;29;20060;-79
2023/06/17 01:07:00;;;;;;;11.23;7.60;;;;;;;13.99;100.00;101647.19;4903930;29;20683;-79
2023/06/17 01:09:50;;;;;;;15.05;8.20;;;;;;;13.99;100.00;101652.53;4892105;29;20036;-78
2023/06/17 01:12:36;;;;;;;15.07;7.75;;;;;;;13.99;100.00;101647.19;4889119;29;20048;-79
2023/06/17 01:15:23;;;;;;;9.98;8.20;;;;;;;13.95;100.00;101636.78;4903063;29;20662;-78
2023/06/17 01:18:09;;;;;;;13.35;8.48;;;;;;;13.94;100.00;101635.06;4903441;29;20044;-78
2023/06/17 01:21:03;;;;;;;12.52;8.20;;;;;;;13.92;100.00;101640.44;4893345;29;20083;-79
2023/06/17 01:23:53;;;;;;;11.73;8.32;;;;;;;13.91;100.00;101633.41;4906763;29;20048;-79
2023/06/17 01:26:39;;;;;;;11.73;8.15;;;;;;;13.88;100.00;101622.88;4895149;29;20119;-78
2023/06/17 01:29:32;;;;;;;13.10;8.27;;;;;;;13.87;100.00;101615.84;4894809;29;20158;-78
2023/06/17 01:32:17;;;;;;;16.02;8.32;;;;;;;13.88;100.00;101616.72;4894565;29;20126;-78
2023/06/17 01:35:06;;;;;;;12.15;8.45;;;;;;;13.88;100.00;101622.03;4905956;29;20052;-78
2023/06/17 01:38:29;;;;;;;13.15;8.10;;;;;;;13.87;100.00;101615.84;4888761;29;20589;-79
2023/06/17 01:41:18;;;;;;;10.23;8.02;;;;;;;13.86;100.00;101624.75;4907172;29;20052;-79
2023/06/17 01:44:03;;;;;;;11.20;8.05;;;;;;;13.85;100.00;101626.53;4895285;29;20036;-78
2023/06/17 01:46:49;;;;;;;11.13;8.32;;;;;;;13.87;100.00;101625.59;4891635;29;20713;-79
2023/06/17 01:49:35;;;;;;;14.00;8.52;;;;;;;13.83;100.00;101623.09;4895255;29;20040;-79
2023/06/17 01:52:20;;;;;;;13.23;9.05;;;;;;;13.83;100.00;101631.09;4902130;29;20473;-79
2023/06/17 01:55:24;;;;;;;13.55;8.68;;;;;;;13.79;100.00;101633.97;4901038;29;20768;-79
2023/06/17 01:58:10;;;;;;;11.80;8.30;;;;;;;13.74;100.00;101623.53;4906380;29;20041;-79
2023/06/17 02:00:55;;;;;;;14.35;9.32;;;;;;;13.72;100.00;101622.72;4893436;29;20111;-79
2023/06/17 02:03:42;;;;;;;13.13;9.02;;;;;;;13.69;100.00;101625.53;4888524;29;20102;-78
2023/06/17 02:06:30;;;;;;;12.25;8.55;;;;;;;13.68;100.00;101624.66;4893951;29;22054;-79
2023/06/17 02:09:16;;;;;;;13.57;8.60;;;;;;;13.69;100.00;101630.88;4888311;29;20407;-79
2023/06/17 02:12:01;;;;;;;10.50;8.40;;;;;;;13.69;100.00;101615.75;4894574;29;20046;-79
2023/06/17 02:14:47;;;;;;;14.35;9.05;;;;;;;13.73;100.00;101620.94;4879550;29;20052;-79
2023/06/17 02:17:35;;;;;;;11.77;8.63;;;;;;;13.74;100.00;101614.69;4893083;29;20151;-79
2023/06/17 02:20:20;;;;;;;14.55;9.00;;;;;;;13.75;100.00;101611.97;4901804;29;20159;-79
2023/06/17 02:23:08;;;;;;;11.98;8.50;;;;;;;13.77;100.00;101612.75;4894232;29;20047;-79
2023/06/17 02:25:55;;;;;;;12.43;8.57;;;;;;;13.82;100.00;101609.84;4893193;29;20099;-79
2023/06/17 02:28:42;;;;;;;12.75;8.85;;;;;;;13.84;100.00;101608.00;4896078;29;20044;-78
2023/06/17 02:31:28;;;;;;;13.63;9.10;;;;;;;13.87;100.00;101599.00;4890983;29;20051;-78
2023/06/17 02:34:14;;;;;;;13.63;9.63;;;;;;;13.90;100.00;101598.88;4882494;29;20707;-78
2023/06/17 02:36:59;;;;;;;13.60;9.45;;;;;;;13.91;100.00;101601.47;4892888;29;20044;-78
2023/06/17 02:39:45;;;;;;;15.38;9.90;;;;;;;13.94;100.00;101606.63;4893021;29;20068;-78
2023/06/17 02:42:30;;;;;;;13.73;10.10;;;;;;;13.98;100.00;101604.69;4906835;29;20113;-78
2023/06/17 02:45:16;;;;;;;16.58;9.85;;;;;;;14.03;100.00;101617.75;4893721;29;20036;-78
2023/06/17 02:48:02;;;;;;;16.35;10.07;;;;;;;14.07;100.00;101616.69;4891002;29;20062;-78
2023/06/17 02:50:47;;;;;;;16.27;10.90;;;;;;;14.11;100.00;101610.28;4893745;29;20044;-78
2023/06/17 02:53:33;;;;;;;15.10;10.15;;;;;;;14.13;100.00;101608.41;4900968;29;20040;-78
2023/06/17 02:56:18;;;;;;;14.27;10.23;;;;;;;14.14;100.00;101612.78;4890507;29;20610;-78
2023/06/17 02:59:04;;;;;;;14.63;11.02;;;;;;;14.15;100.00;101609.19;4893109;29;20072;-79
2023/06/17 03:01:50;;;;;;;13.57;9.80;;;;;;;14.21;100.00;101608.91;4890847;29;20051;-78
2023/06/17 03:04:35;;;;;;;14.00;10.43;;;;;;;14.24;100.00;101616.75;4891093;29;20060;-78
2023/06/17 03:07:20;;;;;;;17.52;11.10;;;;;;;14.29;100.00;101612.97;4893485;29;20135;-77
2023/06/17 03:10:06;;;;;;;15.75;11.10;;;;;;;14.33;100.00;101609.25;4892165;29;20044;-78
2023/06/17 03:12:55;;;;;;;18.55;11.85;;;;;;;14.38;100.00;101601.88;4892699;29;20060;-78
2023/06/17 03:15:41;;;;;;;17.90;11.02;;;;;;;14.43;100.00;101597.16;4900520;29;20044;-78
2023/06/17 03:18:27;;;;;;;16.55;10.75;;;;;;;14.46;100.00;101602.38;4894274;29;20040;-78
2023/06/17 03:21:12;;;;;;;19.10;11.68;;;;;;;14.48;100.00;101595.16;4889935;29;20051;-78
2023/06/17 03:23:58;;;;;;;16.27;11.43;;;;;;;14.50;100.00;101598.59;4906214;29;20677;-78
2023/06/17 03:26:44;;;;;;;16.30;12.00;;;;;;;14.52;100.00;101594.06;4893438;29;20079;-78
2023/06/17 03:29:30;;;;;;;17.92;11.68;;;;;;;14.56;100.00;101588.56;4897951;29;20052;-79
2023/06/17 03:32:15;;;;;;;14.85;10.93;;;;;;;14.58;100.00;101590.22;4892647;29;20044;-78
2023/06/17 03:35:02;;;;;;;20.35;11.23;;;;;;;14.61;100.00;101589.22;4903672;29;20488;-78
2023/06/17 03:37:47;;;;;;;17.15;11.57;;;;;;;14.64;100.00;101587.25;4902491;29;20103;-78
2023/06/17 03:40:33;;;;;;;19.70;11.95;;;;;;;14.67;100.00;101583.56;4892389;29;20048;-78
2023/06/17 03:43:18;;;;;;;20.35;11.85;;;;;;;14.68;100.00;101582.63;4891847;29;20412;-78
2023/06/17 03:46:03;;;;;;;17.63;11.80;;;;;;;14.68;100.00;101590.63;4884324;29;20107;-79
2023/06/17 03:48:49;;;;;;;17.23;11.57;;;;;;;14.69;100.00;101591.47;4904275;29;20051;-78
2023/06/17 03:51:36;;;;;;;17.67;11.75;;;;;;;14.69;100.00;101600.34;4876784;29;20486;-78
2023/06/17 03:54:22;;;;;;;17.52;11.50;;;;;;;14.72;100.00;101596.66;4889676;29;20072;-78
2023/06/17 03:57:08;;;;;;;17.30;11.25;;;;;;;14.75;100.00;101596.50;4892003;29;20658;-78
2023/06/17 03:59:53;;;;;;;18.65;10.65;;;;;;;14.76;100.00;101601.78;4892027;29;20054;-78
2023/06/17 04:02:39;;;;;;;17.90;11.90;;;;;;;14.77;100.00;101606.16;4889532;29;20051;-78
2023/06/17 04:05:31;;;;;;;22.48;13.13;;;;;;;14.78;100.00;101602.56;4891974;29;20104;-78
2023/06/17 04:08:18;;;;;;;21.77;13.70;;;;;;;14.82;100.00;101602.41;4899525;29;21432;-78
2023/06/17 04:11:03;;;;;;;19.65;12.93;;;;;;;14.83;100.00;101601.47;4889495;29;20521;-78
2023/06/17 04:13:49;;;;;;;22.20;12.85;;;;;;;14.85;100.00;101603.13;4891999;29;20059;-78
2023/06/17 04:16:35;;;;;;;18.10;12.52;;;;;;;14.88;100.00;101600.28;4885707;29;20388;-78
2023/06/17 04:19:23;;;;;;;20.45;12.13;;;;;;;14.91;100.00;101601.91;4889745;29;20052;-79
2023/06/17 04:22:08;;;;;;;19.77;12.88;;;;;;;14.95;100.00;101603.50;4904769;29;20055;-78
2023/06/17 04:24:55;;;;;;;19.73;12.45;;;;;;;14.97;100.00;101612.28;4891928;29;20040;-78
2023/06/17 04:27:41;;;;;;;18.95;11.85;;;;;;;14.99;100.00;101610.38;4903224;29;20043;-77
2023/06/17 04:30:27;;;;;;;19.35;11.95;;;;;;;15.00;100.00;101606.78;4877709;29;20680;-79
2023/06/17 04:33:17;;;;;;;17.77;11.88;;;;;;;15.03;100.00;101605.78;4890484;29;20060;-79
2023/06/17 04:36:08;;;;;;;17.15;11.05;;;;;;;15.04;100.00;101605.69;4891554;29;20036;-79
2023/06/17 04:38:53;;;;;;;15.43;11.73;;;;;;;15.07;100.00;101605.53;4892129;29;20403;-79
2023/06/17 04:41:40;;;;;;;18.45;12.15;;;;;;;15.13;100.00;101601.66;4889614;29;20036;-79
2023/06/17 04:44:26;;;;;;;18.58;11.75;;;;;;;15.18;100.00;101598.75;4892750;29;22078;-78
2023/06/17 04:47:12;;;;;;;15.48;10.93;;;;;;;15.18;100.00;101593.41;4902144;29;21111;-78
2023/06/17 04:49:57;;;;;;;20.35;11.00;;;;;;;15.20;100.00;101602.22;4899284;29;20070;-78
2023/06/17 04:52:44;;;;;;;17.30;11.52;;;;;;;15.20;100.00;101597.72;4898798;29;20629;-78
2023/06/17 04:55:35;;;;;;;15.02;10.77;;;;;;;15.24;100.00;101606.44;4889997;29;20060;-78
2023/06/17 04:58:20;;;;;;;17.45;11.40;;;;;;;15.29;100.00;101607.06;4896463;29;20044;-78
2023/06/17 05:01:06;;;;;;;20.15;11.95;;;;;;;15.32;100.00;101600.69;4881477;29;20052;-78
2023/06/17 05:03:51;;;;;;;15.80;11.05;;;;;;;15.37;100.00;101592.44;4891360;29;20052;-78
2023/06/17 05:06:37;;;;;;;15.93;11.13;;;;;;;15.40;100.00;101593.13;4895700;29;20056;-78
2023/06/17 05:09:22;;;;;;;16.38;11.23;;;;;;;15.46;100.00;101594.59;4879492;29;20175;-77
2023/06/17 05:12:10;;;;;;;17.42;10.40;;;;;;;15.50;100.00;101601.50;4893279;29;20064;-78
2023/06/17 05:14:56;;;;;;;15.57;11.40;;;;;;;15.54;100.00;101599.53;4894710;29;20044;-78
2023/06/17 05:17:41;;;;;;;15.13;11.07;;;;;;;15.56;100.00;101600.28;4901759;29;20691;-78
2023/06/17 05:20:30;;;;;;;14.45;11.20;;;;;;;15.58;100.00;101599.28;4898971;29;20044;-78
2023/06/17 05:23:16;;;;;;;16.63;11.40;;;;;;;15.59;100.00;101603.66;4893562;29;20059;-78
2023/06/17 05:26:01;;;;;;;20.33;12.07;;;;;;;15.63;100.00;101609.69;4894451;29;20051;-78
2023/06/17 05:28:46;;;;;;;17.35;13.18;;;;;;;15.65;100.00;101613.16;4894542;29;20143;-78
2023/06/17 05:31:32;;;;;;;20.13;13.00;;;;;;;15.69;100.00;101617.38;4895030;29;20522;-77
2023/06/17 05:34:17;;;;;;;22.92;13.20;;;;;;;15.71;100.00;101609.28;4894627;29;20603;-78
2023/06/17 05:37:03;;;;;;;20.20;13.43;;;;;;;15.75;100.00;101608.19;4889716;29;20044;-78
2023/06/17 05:39:51;;;;;;;22.23;13.77;;;;;;;15.80;100.00;101608.75;4893903;29;20500;-78
2023/06/17 05:42:36;;;;;;;19.00;13.65;;;;;;;15.86;100.00;101600.41;4888524;29;20175;-78
2023/06/17 05:45:22;;;;;;;19.90;12.73;;;;;;;15.92;100.00;101609.94;4892394;29;20096;-78
2023/06/17 05:48:07;;;;;;;23.27;13.20;;;;;;;15.96;100.00;101611.47;4888339;29;20079;-76
2023/06/17 05:50:53;;;;;;;18.73;12.48;;;;;;;15.95;100.00;101614.25;4894826;29;20047;-78
2023/06/17 05:53:38;;;;;;;18.65;13.18;;;;;;;15.99;100.00;101615.78;4893293;29;20126;-77
2023/06/17 05:56:23;;;;;;;18.88;12.32;;;;;;;16.01;100.00;101620.09;4907455;29;20075;-77
2023/06/17 05:59:09;;;;;;;14.15;11.35;;;;;;;16.05;100.00;101619.91;4894782;29;20043;-78
2023/06/17 06:01:54;;;;;;;17.75;12.18;;;;;;;16.07;100.00;101616.22;4904753;29;20060;-76
2023/06/17 06:04:40;;;;;;;15.50;11.77;;;;;;;16.08;100.00;101615.25;4906518;29;20060;-76
2023/06/17 06:07:25;;;;;;;17.27;10.80;;;;;;;16.12;100.00;101611.47;4894393;29;20203;-76
2023/06/17 06:10:13;;;;;;;14.93;10.85;;;;;;;16.21;100.00;101614.56;4891749;29;20075;-76
2023/06/17 06:12:59;;;;;;;16.40;10.30;;;;;;;16.29;100.00;101617.69;4894132;29;20043;-76
2023/06/17 06:15:44;;;;;;;15.00;10.25;;;;;;;16.36;100.00;101623.50;4892508;29;20097;-76
2023/06/17 06:18:30;;;;;;;16.30;10.20;;;;;;;16.39;100.00;101621.53;4891185;29;20827;-77
2023/06/17 06:21:18;;;;;;;18.50;10.60;;;;;;;16.45;100.00;101627.47;4901665;29;20483;-78
2023/06/17 06:24:05;;;;;;;16.05;10.38;;;;;;;16.50;100.00;101625.41;4894359;29;20055;-76
2023/06/17 06:26:50;;;;;;;16.90;10.70;;;;;;;16.60;100.00;101618.53;4893213;29;20040;-76
2023/06/17 06:29:36;;;;;;;13.60;9.98;;;;;;;16.73;100.00;101612.47;4894473;29;20081;-76
2023/06/17 06:32:21;;;;;;;16.23;10.00;;;;;;;16.89;100.00;101613.28;4892246;29;20060;-76
2023/06/17 06:35:07;;;;;;;16.15;10.30;;;;;;;17.03;100.00;101617.84;4887382;29;20952;-77
2023/06/17 06:37:52;;;;;;;13.75;9.70;;;;;;;17.10;100.00;101612.94;4891065;29;20051;-76
2023/06/17 06:40:38;;;;;;;15.05;9.40;;;;;;;17.19;100.00;101612.41;4899070;29;20135;-77
2023/06/17 06:43:26;;;;;;;12.15;8.73;;;;;;;17.30;100.00;101613.53;4885711;29;20036;-77
2023/06/17 06:46:12;;;;;;;13.43;9.32;;;;;;;17.45;100.00;101612.63;4873064;29;20044;-77
2023/06/17 06:49:00;;;;;;;13.48;8.18;;;;;;;17.68;100.00;101612.97;4894293;29;20048;-77
2023/06/17 06:51:46;;;;;;;12.65;8.05;;;;;;;18.00;100.00;101618.09;4904430;29;20597;-77
2023/06/17 06:54:31;;;;;;;12.18;8.02;;;;;;;18.25;100.00;101616.50;4892547;29;20083;-77
2023/06/17 06:57:17;;;;;;;11.02;8.50;;;;;;;18.57;100.00;101616.16;4892439;29;20584;-77
2023/06/17 07:00:08;;;;;;;12.90;7.75;;;;;;;18.87;100.00;101619.56;4873386;29;20036;-77
2023/06/17 07:02:56;;;;;;;15.38;7.60;;;;;;;19.13;100.00;101625.81;4882618;29;20067;-77
2023/06/17 07:05:41;;;;;;;9.60;7.10;;;;;;;19.20;100.00;101630.75;4892682;29;20083;-77
2023/06/17 07:08:27;;;;;;;11.43;7.85;;;;;;;19.05;100.00;101636.22;4892495;29;20032;-77
2023/06/17 07:11:12;;;;;;;10.23;7.15;;;;;;;18.90;100.00;101642.63;4890218;29;20164;-78
2023/06/17 07:13:58;;;;;;;11.80;7.40;;;;;;;18.90;100.00;101634.59;4892285;29;20047;-77
2023/06/17 07:16:43;;;;;;;11.48;7.57;;;;;;;19.00;100.00;101635.66;4891201;29;20051;-78
2023/06/17 07:19:31;;;;;;;10.95;7.57;;;;;;;19.12;100.00;101629.47;4889336;29;20040;-79
2023/06/17 07:22:16;;;;;;;12.32;6.95;;;;;;;19.25;100.00;101623.25;4890824;29;20391;-78
2023/06/17 07:25:02;;;;;;;10.60;7.50;;;;;;;19.48;100.00;101626.13;4891006;29;20697;-78
2023/06/17 07:27:48;;;;;;;11.10;7.00;;;;;;;19.76;100.00;101626.81;4889866;29;20079;-78
2023/06/17 07:30:34;;;;;;;9.55;7.07;;;;;;;20.08;100.00;101624.53;4886209;29;20045;-76
2023/06/17 07:33:19;;;;;;;10.32;6.85;;;;;;;20.28;100.00;101626.69;4890673;29;20044;-77
2023/06/17 07:36:05;;;;;;;10.32;6.45;;;;;;;20.43;100.00;101620.16;4888369;29;20162;-77
2023/06/17 07:38:51;;;;;;;10.88;7.10;;;;;;;20.44;100.00;101624.56;4892297;29;20111;-77
2023/06/17 07:41:36;;;;;;;9.65;7.03;;;;;;;20.47;100.00;101623.47;4891760;29;20067;-76
2023/06/17 07:44:22;;;;;;;11.13;7.13;;;;;;;20.42;100.00;101618.44;4879101;29;20055;-76
2023/06/17 07:47:07;;;;;;;10.07;6.90;;;;;;;20.44;100.00;101618.34;4891686;29;20047;-77
2023/06/17 07:49:53;;;;;;;10.18;7.05;;;;;;;20.66;100.00;101604.13;4892384;29;20694;-76
2023/06/17 07:52:38;;;;;;;9.85;6.53;;;;;;;20.76;100.00;101612.34;4887925;29;20040;-76
2023/06/17 07:55:30;;;;;;;8.05;5.85;;;;;;;20.93;100.00;101613.78;4873582;29;20060;-76
2023/06/17 07:58:16;;;;;;;10.85;6.13;;;;;;;21.03;100.00;101612.06;4886089;29;22026;-76
2023/06/17 08:01:02;;;;;;;9.32;6.35;;;;;;;20.97;100.00;101612.53;4890996;29;22218;-76
2023/06/17 08:03:47;;;;;;;10.80;6.45;;;;;;;20.88;100.00;101616.78;4891448;29;20515;-76
2023/06/17 08:06:33;;;;;;;9.77;6.47;;;;;;;20.95;100.00;101610.94;4891712;29;20436;-76
2023/06/17 08:09:19;;;;;;;9.82;6.82;;;;;;;21.01;100.00;101615.84;4901281;29;20166;-77
2023/06/17 08:12:05;;;;;;;10.18;6.47;;;;;;;21.11;100.00;101618.66;4891286;29;20064;-77
2023/06/17 08:14:51;;;;;;;8.00;6.03;;;;;;;21.36;100.00;101611.34;4873322;29;20547;-77
2023/06/17 08:17:37;;;;;;;10.10;6.35;;;;;;;21.52;99.17;101611.00;4901552;29;20507;-77
2023/06/17 08:20:22;;;;;;;11.27;7.07;;;;;;;21.57;100.00;101606.94;4885074;29;22049;-77
2023/06/17 08:23:08;;;;;;;10.30;6.50;;;;;;;21.64;100.00;101611.84;4891620;29;20491;-77
2023/06/17 08:25:53;;;;;;;8.38;5.90;;;;;;;21.77;99.27;101604.50;4889325;29;20463;-77
2023/06/17 08:28:38;;;;;;;9.38;5.90;;;;;;;21.78;99.36;101611.59;4890856;29;20123;-77
2023/06/17 08:31:26;;;;;;;8.38;5.88;;;;;;;22.01;99.00;101608.84;4891570;29;20507;-77
2023/06/17 08:34:12;;;;;;;9.38;5.60;;;;;;;22.27;98.28;101605.81;4886442;29;20044;-77
2023/06/17 08:37:03;;;;;;;10.88;6.22;;;;;;;22.56;96.95;101604.41;4879301;29;20112;-77
2023/06/17 08:39:51;;;;;;;8.68;6.13;;;;;;;22.79;95.49;101605.97;4902475;29;20384;-77
2023/06/17 08:42:38;;;;;;;10.55;6.22;;;;;;;22.84;94.19;101602.91;4892157;29;20040;-77
2023/06/17 08:45:25;;;;;;;9.73;6.40;;;;;;;22.59;95.11;101607.69;4876078;29;20055;-77
2023/06/17 08:48:10;;;;;;;10.23;6.22;;;;;;;22.54;94.49;101601.81;4893735;29;20036;-77
2023/06/17 08:51:05;;;;;;;8.45;6.82;;;;;;;22.64;95.07;101605.47;4880447;29;20059;-77
2023/06/17 08:53:51;;;;;;;8.63;6.55;;;;;;;22.78;95.81;101601.56;4889422;29;20037;-77
2023/06/17 08:56:37;;;;;;;12.43;6.00;;;;;;;23.00;95.16;101601.56;4901529;29;20499;-77
2023/06/17 08:59:22;;;;;;;7.85;5.63;;;;;;;23.27;94.41;101608.25;4880183;29;20056;-77
2023/06/17 09:02:10;;;;;;;8.82;6.07;;;;;;;23.44;93.94;101595.97;4894804;29;20367;-77
2023/06/17 09:04:56;;;;;;;6.85;5.32;;;;;;;23.62;93.44;101598.88;4893426;29;20043;-77
2023/06/17 09:07:42;;;;;;;13.95;6.40;;;;;;;23.53;91.41;101599.72;4894775;29;20170;-77
2023/06/17 09:10:28;;;;;;;8.90;6.22;;;;;;;23.45;91.43;101597.69;4890588;29;20092;-77
2023/06/17 09:13:13;;;;;;;9.02;5.82;;;;;;;23.44;91.38;101602.22;4894869;29;20405;-77
2023/06/17 09:16:00;;;;;;;10.13;6.00;;;;;;;23.51;91.25;101605.25;4906608;29;20798;-77
2023/06/17 09:18:45;;;;;;;10.07;5.80;;;;;;;23.58;89.56;101605.53;4899636;29;20048;-77
2023/06/17 09:21:31;;;;;;;6.68;5.10;;;;;;;23.63;89.40;101607.84;4894589;29;20107;-77
2023/06/17 09:24:17;;;;;;;6.75;5.40;;;;;;;23.73;88.21;101596.06;4877293;29;20044;-77
2023/06/17 09:27:03;;;;;;;7.05;5.07;;;;;;;23.99;87.26;101597.38;4878749;29;20044;-77
2023/06/17 09:30:06;;;;;;;7.82;5.93;;;;;;;24.14;82.25;101606.00;4895191;29;20043;-77
2023/06/17 09:32:52;;;;;;;9.65;5.78;;;;;;;24.18;84.06;101602.00;4887751;29;20054;-76
2023/06/17 09:35:37;;;;;;;12.02;5.70;;;;;;;23.98;82.32;101601.09;4887023;29;20075;-77
2023/06/17 09:38:22;;;;;;;7.93;5.40;;;;;;;24.11;84.13;101606.25;4895421;29;20053;-76
2023/06/17 09:41:13;;;;;;;6.70;5.40;;;;;;;24.29;81.27;101603.69;4902584;29;20499;-77
2023/06/17 09:43:59;;;;;;;8.95;5.70;;;;;;;24.39;79.67;101603.69;4873859;29;20052;-78
2023/06/17 09:46:46;;;;;;;7.90;5.38;;;;;;;24.49;79.72;101601.84;4895096;29;20055;-77
2023/06/17 09:49:33;;;;;;;6.85;5.50;;;;;;;24.52;78.75;101612.38;4875975;29;20032;-77
2023/06/17 09:52:20;;;;;;;8.45;5.63;;;;;;;24.37;78.41;101603.88;4886574;29;20187;-78
2023/06/17 09:55:06;;;;;;;9.88;5.75;;;;;;;24.37;78.59;101611.97;4894206;29;20044;-77
2023/06/17 09:57:55;;;;;;;7.95;5.60;;;;;;;24.48;77.89;101605.56;4868909;29;20063;-77
2023/06/17 10:00:41;;;;;;;8.82;6.15;;;;;;;24.47;77.29;101613.81;4876903;29;20601;-76
2023/06/17 10:03:30;;;;;;;8.57;6.07;;;;;;;24.49;77.94;101615.38;4889228;29;20048;-76
2023/06/17 10:06:19;;;;;;;10.55;6.15;;;;;;;24.63;77.26;101610.53;4876355;29;20040;-76
2023/06/17 10:09:07;;;;;;;7.68;5.90;;;;;;;24.57;77.52;101606.56;4891894;29;20132;-76
2023/06/17 10:11:53;;;;;;;9.23;5.80;;;;;;;24.54;78.05;101602.28;4893034;29;20044;-76
2023/06/17 10:14:39;;;;;;;9.95;6.43;;;;;;;24.67;77.97;101609.22;4904982;29;20451;-76
2023/06/17 10:17:25;;;;;;;13.82;6.60;;;;;;;24.61;77.61;101599.00;4903396;29;20071;-76
2023/06/17 10:20:14;;;;;;;8.70;5.90;;;;;;;24.57;77.45;101600.28;4892496;29;20058;-77
2023/06/17 10:23:02;;;;;;;10.82;6.88;;;;;;;24.31;77.36;101599.03;4888603;29;20048;-76
2023/06/17 10:25:49;;;;;;;9.90;6.00;;;;;;;24.25;77.60;101610.41;4887271;29;20032;-76
2023/06/17 10:28:53;;;;;;;8.10;5.80;;;;;;;24.27;77.11;101605.69;4894759;29;20514;-75
2023/06/17 10:31:40;;;;;;;8.25;5.78;;;;;;;24.30;77.83;101601.88;4894401;29;20096;-77
2023/06/17 10:34:28;;;;;;;8.35;6.28;;;;;;;24.28;77.73;101593.88;4889559;29;20525;-76
2023/06/17 10:37:26;;;;;;;8.63;6.18;;;;;;;24.30;77.14;101586.50;4892719;29;21759;-76
2023/06/17 10:40:25;;;;;;;8.95;5.80;;;;;;;24.44;77.24;101595.19;4877776;29;20040;-76
2023/06/17 10:43:13;;;;;;;8.10;5.90;;;;;;;24.52;76.68;101587.19;4889313;29;20040;-76
2023/06/17 10:45:58;;;;;;;7.15;5.07;;;;;;;24.49;76.46;101596.44;4893893;29;20036;-77
2023/06/17 10:48:46;;;;;;;7.68;4.90;;;;;;;24.62;76.81;101584.47;4893630;29;20681;-77
2023/06/17 10:51:31;;;;;;;8.38;5.75;;;;;;;24.83;75.39;101586.19;4890461;29;20055;-77
2023/06/17 10:54:44;;;;;;;8.95;5.60;;;;;;;24.84;73.04;101587.88;4890815;29;20039;-76
2023/06/17 10:57:31;;;;;;;7.03;5.20;;;;;;;24.83;75.84;101581.59;4898995;29;20079;-76
2023/06/17 11:00:17;;;;;;;7.90;4.80;;;;;;;24.88;74.99;101586.59;4887366;29;20054;-76
2023/06/17 11:03:02;;;;;;;6.47;4.90;;;;;;;25.00;74.94;101587.28;4891372;29;20112;-76
2023/06/17 11:05:50;;;;;;;9.07;5.60;;;;;;;24.97;74.37;101588.41;4899771;29;20044;-76
2023/06/17 11:08:37;;;;;;;7.50;5.10;;;;;;;24.84;74.63;101582.47;4892121;29;20899;-76
2023/06/17 11:11:22;;;;;;;9.35;5.88;;;;;;;24.86;75.17;101583.16;4891820;29;20481;-78
2023/06/17 11:14:11;;;;;;;7.25;5.18;;;;;;;24.97;75.08;101574.00;4893646;29;20038;-75
2023/06/17 11:16:56;;;;;;;8.55;5.13;;;;;;;25.18;74.76;101590.06;4903962;29;20068;-76
2023/06/17 11:19:42;;;;;;;6.53;4.82;;;;;;;25.28;73.31;101580.00;4890908;29;21927;-76
2023/06/17 11:22:28;;;;;;;7.95;6.10;;;;;;;25.35;74.74;101573.03;4872830;29;20556;-76
2023/06/17 11:25:13;;;;;;;12.38;6.45;;;;;;;25.23;74.51;101572.34;4892115;29;20052;-76
2023/06/17 11:28:01;;;;;;;9.40;6.07;;;;;;;25.25;73.61;101561.38;4892310;29;20032;-78
2023/06/17 11:30:49;;;;;;;10.15;5.60;;;;;;;25.29;73.36;101570.03;4892496;29;20043;-77
2023/06/17 11:33:35;;;;;;;7.95;6.05;;;;;;;25.33;73.11;101572.31;4877463;29;20048;-77
2023/06/17 11:36:21;;;;;;;9.55;5.75;;;;;;;25.34;72.47;101568.59;4890369;29;20399;-77
2023/06/17 11:39:08;;;;;;;9.40;5.68;;;;;;;25.35;72.40;101567.59;4888599;29;20052;-77
2023/06/17 11:42:01;;;;;;;9.98;6.55;;;;;;;25.29;72.36;101565.50;4899291;29;20040;-78
2023/06/17 11:44:48;;;;;;;8.50;5.55;;;;;;;25.27;72.52;101559.34;4877590;29;20036;-77
2023/06/17 11:47:35;;;;;;;8.98;6.45;;;;;;;25.27;72.25;101561.22;4887637;29;20055;-77
2023/06/17 11:50:20;;;;;;;9.02;5.68;;;;;;;25.33;72.99;101561.47;4889382;29;20048;-76
2023/06/17 11:53:06;;;;;;;9.77;6.00;;;;;;;25.36;72.24;101561.19;4886541;29;20051;-77
2023/06/17 11:55:51;;;;;;;8.60;5.88;;;;;;;25.24;71.99;101554.25;4888714;29;20157;-77
2023/06/17 11:58:41;;;;;;;8.35;5.40;;;;;;;25.26;71.22;101557.66;4902458;29;20377;-77
2023/06/17 12:01:26;;;;;;;7.57;5.18;;;;;;;25.38;70.45;101562.88;4885866;29;20054;-78
2023/06/17 12:04:13;;;;;;;7.50;5.10;;;;;;;25.35;69.10;101555.91;4891707;29;20040;-77
2023/06/17 12:06:59;;;;;;;7.50;4.82;;;;;;;25.31;68.30;101555.34;4891665;29;20107;-77
2023/06/17 12:09:53;;;;;;;7.15;4.55;;;;;;;25.32;68.29;101551.63;4891650;29;20044;-78
2023/06/17 12:12:40;;;;;;;7.82;5.50;;;;;;;25.46;69.39;101561.13;4891260;29;20047;-78
2023/06/17 12:15:30;;;;;;;7.88;5.78;;;;;;;25.51;67.66;101552.53;4891447;29;20100;-78
2023/06/17 12:18:18;;;;;;;9.93;5.95;;;;;;;25.50;68.51;101553.56;4891310;29;20139;-78
2023/06/17 12:21:12;;;;;;;9.73;5.68;;;;;;;25.40;67.56;101548.19;4903379;29;20864;-77
2023/06/17 12:24:00;;;;;;;7.70;6.13;;;;;;;25.45;68.64;101553.13;4875512;29;20040;-77
2023/06/17 12:26:46;;;;;;;7.70;5.47;;;;;;;25.46;68.39;101549.41;4889335;29;20047;-77
2023/06/17 12:29:37;;;;;;;9.65;5.50;;;;;;;25.55;68.67;101543.13;4890220;29;20047;-77
2023/06/17 12:32:23;;;;;;;9.43;5.50;;;;;;;25.62;67.72;101543.38;4890611;29;20148;-78
2023/06/17 12:35:14;;;;;;;7.93;5.20;;;;;;;25.57;67.47;101543.84;4889576;29;20628;-78
2023/06/17 12:38:06;;;;;;;9.73;5.90;;;;;;;25.59;66.67;101546.38;4885762;29;20044;-77
2023/06/17 12:40:52;;;;;;;7.60;5.53;;;;;;;25.60;66.96;101535.38;4887209;29;20052;-77